Time;durP1;ratioP1;P1;durP2;ratioP2;P2;SDS_P1;SDS_P2;PMS_P1;PMS_P2;Temp;Humidity;BMP_temperature;BMP_pressure;BME280_temperature;BME280_humidity;BME280_pressure;Samples;Min_cycle;Max_cycle;Signal;HPM_P1;HPM_P2
2023/06/21 00:00:46;;;;;;;15.40;8.87;;;20.20;99.90;;;;;;5154751;27;20543;-68
2023/06/21 00:03:12;;;;;;;11.90;8.70;;;20.30;99.90;;;;;;5154676;27;20248;-68
2023/06/21 00:05:38;;;;;;;18.93;9.40;;;20.30;99.90;;;;;;5154701;27;20550;-68
2023/06/21 00:08:04;;;;;;;13.83;9.77;;;20.40;99.90;;;;;;5154583;27;20420;-68
2023/06/21 00:10:30;;;;;;;16.90;10.10;;;20.30;99.90;;;;;;5136256;27;20248;-69
2023/06/21 00:12:56;;;;;;;13.20;8.87;;;20.30;99.90;;;;;;5154488;27;20457;-69
2023/06/21 00:15:22;;;;;;;14.47;9.33;;;20.30;99.90;;;;;;5154852;27;20209;-69
2023/06/21 00:17:48;;;;;;;12.90;9.53;;;20.10;99.90;;;;;;5154670;27;20410;-69
2023/06/21 00:20:14;;;;;;;15.33;9.37;;;20.00;99.90;;;;;;5154657;27;20444;-69
2023/06/21 00:22:40;;;;;;;14.03;10.10;;;20.00;99.90;;;;;;5154743;27;20268;-69
2023/06/21 00:25:07;;;;;;;19.70;9.87;;;20.00;99.90;;;;;;5135901;27;20191;-68
2023/06/21 00:27:34;;;;;;;12.20;9.43;;;20.00;99.90;;;;;;5154137;27;20445;-68
2023/06/21 00:29:59;;;;;;;15.80;9.30;;;19.90;99.90;;;;;;5153822;27;20436;-68
2023/06/21 00:32:25;;;;;;;20.87;9.53;;;19.90;99.90;;;;;;5153908;27;20835;-69
2023/06/21 00:34:51;;;;;;;21.60;11.27;;;19.80;99.90;;;;;;5135285;27;20183;-69
2023/06/21 00:37:16;;;;;;;13.13;8.77;;;19.70;99.90;;;;;;5135153;27;20177;-69
2023/06/21 00:39:42;;;;;;;11.27;8.07;;;19.80;99.90;;;;;;5153544;27;20615;-69
2023/06/21 00:42:09;;;;;;;21.17;9.93;;;19.90;99.90;;;;;;5153507;27;20176;-69
2023/06/21 00:44:35;;;;;;;23.30;8.90;;;19.90;99.90;;;;;;5153356;27;20512;-69
2023/06/21 00:47:01;;;;;;;16.57;9.70;;;19.90;99.90;;;;;;5153193;27;20767;-69
2023/06/21 00:49:29;;;;;;;11.57;9.83;;;19.90;99.90;;;;;;5153509;27;20440;-70
2023/06/21 00:51:58;;;;;;;18.30;10.73;;;19.80;99.90;;;;;;5153288;27;20537;-69
2023/06/21 00:54:29;;;;;;;15.53;10.73;;;19.80;99.90;;;;;;5153302;27;20409;-69
2023/06/21 00:56:58;;;;;;;16.73;9.93;;;19.80;99.90;;;;;;5153232;27;20420;-69
2023/06/21 00:59:27;;;;;;;18.33;10.23;;;19.70;99.90;;;;;;5153211;27;20426;-70
2023/06/21 01:02:00;;;;;;;16.43;10.00;;;19.70;99.90;;;;;;5134863;27;20421;-70
2023/06/21 01:04:30;;;;;;;27.37;10.53;;;19.70;99.90;;;;;;5134196;27;20444;-69
2023/06/21 01:07:15;;;;;;;17.17;9.07;;;19.60;99.90;;;;;;5152518;27;20481;-69
2023/06/21 01:10:12;;;;;;;20.67;10.20;;;19.70;99.90;;;;;;5152615;27;20447;-70
2023/06/21 01:12:49;;;;;;;14.20;9.70;;;19.60;99.90;;;;;;5152293;27;20466;-69
2023/06/21 01:15:24;;;;;;;17.40;10.10;;;19.60;99.90;;;;;;5152388;27;20500;-69
2023/06/21 01:17:52;;;;;;;16.30;10.67;;;19.60;99.90;;;;;;5152711;27;20397;-69
2023/06/21 01:20:25;;;;;;;21.13;11.10;;;19.50;99.90;;;;;;5152181;27;20457;-68
2023/06/21 01:23:03;;;;;;;15.10;9.80;;;19.40;99.90;;;;;;5152365;27;20412;-68
2023/06/21 01:26:06;;;;;;;22.40;10.70;;;19.40;99.90;;;;;;5152387;27;20501;-68
2023/06/21 01:28:56;;;;;;;18.23;11.57;;;19.30;99.90;;;;;;5152415;27;20438;-68
2023/06/21 01:31:23;;;;;;;15.47;10.70;;;19.40;99.90;;;;;;5152747;27;20533;-68
2023/06/21 01:33:50;;;;;;;14.50;10.20;;;19.20;99.90;;;;;;5133611;27;20406;-68
2023/06/21 01:36:15;;;;;;;16.50;10.67;;;19.00;99.90;;;;;;5152381;27;20418;-68
2023/06/21 01:38:41;;;;;;;22.17;11.60;;;18.90;99.90;;;;;;5151955;27;20437;-68
2023/06/21 01:41:10;;;;;;;21.80;11.70;;;18.80;99.90;;;;;;5151404;27;20183;-68
2023/06/21 01:43:37;;;;;;;14.27;10.30;;;18.70;99.90;;;;;;5151440;27;20621;-68
2023/06/21 01:46:04;;;;;;;11.27;10.17;;;18.80;99.90;;;;;;5132588;27;20448;-69
2023/06/21 01:48:33;;;;;;;20.30;10.27;;;18.80;99.90;;;;;;5151445;27;20816;-68
2023/06/21 01:51:03;;;;;;;16.37;11.10;;;19.00;99.90;;;;;;5132534;27;20428;-68
2023/06/21 01:53:33;;;;;;;14.63;9.93;;;19.00;99.90;;;;;;5151290;27;20472;-68
2023/06/21 01:56:01;;;;;;;15.17;10.77;;;19.10;99.90;;;;;;5151310;27;20837;-68
2023/06/21 01:58:28;;;;;;;11.70;9.97;;;19.10;99.90;;;;;;5151254;27;20434;-68
2023/06/21 02:00:56;;;;;;;16.30;10.47;;;19.10;99.90;;;;;;5151260;27;20418;-68
2023/06/21 02:03:22;;;;;;;17.40;10.90;;;19.00;99.90;;;;;;5151209;27;20436;-69
2023/06/21 02:05:49;;;;;;;17.23;10.90;;;19.00;99.90;;;;;;5151009;27;20413;-68
2023/06/21 02:08:16;;;;;;;15.73;10.57;;;19.00;99.90;;;;;;5150925;27;20409;-68
2023/06/21 02:10:46;;;;;;;17.63;10.40;;;19.10;99.90;;;;;;5150760;27;20411;-68
2023/06/21 02:13:16;;;;;;;22.33;10.63;;;19.10;99.90;;;;;;5150892;27;20555;-68
2023/06/21 02:15:41;;;;;;;17.33;9.67;;;19.10;99.90;;;;;;5132150;27;20436;-69
2023/06/21 02:18:09;;;;;;;14.87;9.00;;;19.10;99.90;;;;;;5150822;27;20426;-68
2023/06/21 02:20:35;;;;;;;20.67;11.53;;;19.20;99.90;;;;;;5150739;27;20181;-68
2023/06/21 02:23:01;;;;;;;15.30;10.47;;;19.30;99.90;;;;;;5150775;27;20414;-68
2023/06/21 02:25:27;;;;;;;14.63;10.13;;;19.30;99.90;;;;;;5150569;27;20765;-68
2023/06/21 02:27:53;;;;;;;13.90;10.57;;;19.10;99.90;;;;;;5150575;27;20188;-68
2023/06/21 02:30:18;;;;;;;14.93;10.90;;;18.90;99.90;;;;;;5150687;27;21031;-68
2023/06/21 02:32:44;;;;;;;16.00;10.23;;;18.60;99.90;;;;;;5131671;27;20216;-68
2023/06/21 02:35:10;;;;;;;16.70;11.87;;;18.40;99.90;;;;;;5150513;27;20661;-68
2023/06/21 02:37:36;;;;;;;16.50;10.97;;;18.40;99.90;;;;;;5150547;27;20193;-68
2023/06/21 02:40:10;;;;;;;15.80;10.33;;;18.50;99.90;;;;;;5150296;27;20476;-68
2023/06/21 02:42:37;;;;;;;19.40;10.77;;;18.70;99.90;;;;;;5150556;27;20417;-69
2023/06/21 02:45:03;;;;;;;16.30;10.40;;;18.80;99.90;;;;;;5150403;27;20504;-69
2023/06/21 02:47:29;;;;;;;17.47;10.33;;;18.90;99.90;;;;;;5131751;27;20420;-69
2023/06/21 02:49:55;;;;;;;22.87;10.50;;;18.90;99.90;;;;;;5150403;27;20445;-68
2023/06/21 02:52:21;;;;;;;17.37;10.03;;;18.80;99.90;;;;;;5150607;27;20894;-68
2023/06/21 02:54:46;;;;;;;18.83;11.30;;;18.70;99.90;;;;;;5150223;27;20510;-68
2023/06/21 02:57:12;;;;;;;15.67;10.30;;;18.60;99.90;;;;;;5131624;27;20184;-69
2023/06/21 02:59:37;;;;;;;15.37;11.10;;;18.60;99.90;;;;;;5150926;27;20279;-69
2023/06/21 03:02:04;;;;;;;18.43;10.70;;;18.70;99.90;;;;;;5150816;27;20656;-68
2023/06/21 03:04:30;;;;;;;12.17;10.80;;;18.70;99.90;;;;;;5150778;27;20283;-69
2023/06/21 03:06:55;;;;;;;16.37;10.80;;;18.80;99.90;;;;;;5115053;27;20514;-68
2023/06/21 03:09:21;;;;;;;17.97;9.40;;;18.80;99.90;;;;;;5132338;27;20483;-68
2023/06/21 03:11:47;;;;;;;17.77;10.40;;;18.90;99.90;;;;;;5132158;27;20223;-69
2023/06/21 03:14:13;;;;;;;12.90;10.30;;;18.90;99.90;;;;;;5150681;27;20188;-68
2023/06/21 03:16:40;;;;;;;16.93;9.80;;;18.90;99.90;;;;;;5150611;27;20983;-69
2023/06/21 03:19:07;;;;;;;24.73;10.10;;;19.00;99.90;;;;;;5150891;27;20275;-69
2023/06/21 03:21:33;;;;;;;11.47;9.93;;;19.00;99.90;;;;;;5150746;27;20967;-69
2023/06/21 03:23:59;;;;;;;18.03;11.30;;;19.00;99.90;;;;;;5150669;27;20413;-69
2023/06/21 03:26:25;;;;;;;22.87;11.00;;;19.10;99.90;;;;;;5150486;27;20850;-69
2023/06/21 03:28:50;;;;;;;16.60;10.97;;;19.10;99.90;;;;;;5150730;27;20257;-68
2023/06/21 03:31:19;;;;;;;17.97;10.17;;;19.20;99.90;;;;;;5150779;27;20207;-68
2023/06/21 03:33:45;;;;;;;14.00;10.20;;;19.20;99.90;;;;;;5150218;27;20177;-69
2023/06/21 03:36:10;;;;;;;11.70;9.47;;;19.20;99.90;;;;;;5150077;27;20486;-68
2023/06/21 03:38:36;;;;;;;15.00;10.30;;;19.20;99.90;;;;;;5149827;27;20200;-68
2023/06/21 03:41:02;;;;;;;18.93;11.53;;;19.30;99.90;;;;;;5149888;27;20599;-73
2023/06/21 03:43:27;;;;;;;18.03;9.57;;;19.30;99.90;;;;;;5149776;27;20255;-74
2023/06/21 03:45:53;;;;;;;16.23;10.90;;;19.30;99.90;;;;;;5131031;27;20235;-74
2023/06/21 03:48:18;;;;;;;15.63;9.37;;;19.30;99.90;;;;;;5131229;27;20186;-73
2023/06/21 03:50:44;;;;;;;14.77;10.17;;;19.30;99.90;;;;;;5131135;27;20203;-73
2023/06/21 03:53:09;;;;;;;16.87;10.90;;;19.30;99.90;;;;;;5149784;27;20290;-74
2023/06/21 03:55:38;;;;;;;15.43;10.23;;;19.50;99.90;;;;;;5149617;27;20672;-74
2023/06/21 03:58:03;;;;;;;19.97;11.03;;;19.50;99.90;;;;;;5148451;27;20192;-74
2023/06/21 04:00:29;;;;;;;13.53;9.40;;;19.60;99.90;;;;;;5129946;27;20816;-74
2023/06/21 04:02:55;;;;;;;12.80;9.33;;;19.60;99.90;;;;;;5112928;27;20199;-74
2023/06/21 04:05:20;;;;;;;17.17;9.67;;;19.60;99.90;;;;;;5131862;27;20225;-74
2023/06/21 04:07:46;;;;;;;14.63;9.90;;;19.80;99.90;;;;;;5133561;27;20187;-74
2023/06/21 04:10:13;;;;;;;14.90;10.00;;;19.90;99.90;;;;;;5152347;27;20207;-74
2023/06/21 04:12:39;;;;;;;30.00;11.53;;;19.90;99.90;;;;;;5153967;27;20471;-74
2023/06/21 04:15:05;;;;;;;16.40;9.97;;;20.00;99.90;;;;;;5152793;27;20406;-74
2023/06/21 04:17:31;;;;;;;20.50;11.10;;;20.00;99.90;;;;;;5152466;27;20405;-74
2023/06/21 04:19:57;;;;;;;15.03;10.47;;;20.00;99.90;;;;;;5152248;27;21121;-74
2023/06/21 04:22:23;;;;;;;15.33;10.57;;;20.00;99.90;;;;;;5133977;27;20193;-74
2023/06/21 04:24:49;;;;;;;16.23;10.40;;;19.90;99.90;;;;;;5152201;27;20463;-74
2023/06/21 04:27:15;;;;;;;22.90;11.07;;;19.90;99.90;;;;;;5152067;27;20460;-74
2023/06/21 04:29:41;;;;;;;16.87;10.73;;;19.80;99.90;;;;;;5133809;27;20476;-74
2023/06/21 04:32:08;;;;;;;20.33;10.50;;;19.80;99.90;;;;;;5152332;27;20224;-75
2023/06/21 04:34:34;;;;;;;15.53;10.37;;;19.80;99.90;;;;;;5152389;27;20486;-75
2023/06/21 04:37:05;;;;;;;15.10;11.60;;;19.90;99.90;;;;;;5152468;27;20409;-75
2023/06/21 04:39:32;;;;;;;21.00;12.13;;;19.90;99.90;;;;;;5152474;27;20500;-74
2023/06/21 04:41:58;;;;;;;15.27;11.33;;;19.80;99.90;;;;;;5133701;27;20430;-74
2023/06/21 04:44:24;;;;;;;24.33;12.30;;;19.80;99.90;;;;;;5134307;27;20832;-74
2023/06/21 04:46:50;;;;;;;21.60;12.40;;;19.70;99.90;;;;;;5152717;27;20557;-73
2023/06/21 04:49:17;;;;;;;20.60;11.23;;;19.70;99.90;;;;;;5152410;27;20448;-74
2023/06/21 04:51:43;;;;;;;23.77;11.03;;;19.80;99.90;;;;;;5152357;27;20215;-73
2023/06/21 04:54:09;;;;;;;21.57;12.70;;;19.80;99.90;;;;;;5152182;27;20414;-73
2023/06/21 04:56:38;;;;;;;23.17;11.60;;;19.60;99.90;;;;;;5116400;27;20931;-74
2023/06/21 04:59:03;;;;;;;20.37;12.80;;;19.50;99.90;;;;;;5152241;27;20203;-73
2023/06/21 05:01:32;;;;;;;26.60;12.30;;;19.40;99.90;;;;;;5152117;27;20410;-74
2023/06/21 05:03:58;;;;;;;21.30;12.10;;;19.30;99.90;;;;;;5152019;27;20736;-73
2023/06/21 05:06:25;;;;;;;17.20;11.60;;;19.10;99.90;;;;;;5133411;27;20494;-73
2023/06/21 05:08:51;;;;;;;21.70;12.97;;;19.00;99.90;;;;;;5151616;27;20231;-73
2023/06/21 05:11:18;;;;;;;14.53;11.33;;;19.00;99.90;;;;;;5152057;27;20453;-73
2023/06/21 05:13:44;;;;;;;20.47;12.87;;;19.20;99.90;;;;;;5133077;27;20413;-72
2023/06/21 05:16:09;;;;;;;19.20;11.87;;;19.20;99.90;;;;;;5151082;27;20411;-73
2023/06/21 05:18:35;;;;;;;18.73;11.83;;;19.30;99.90;;;;;;5132606;27;20242;-74
2023/06/21 05:21:01;;;;;;;17.80;10.20;;;19.30;99.90;;;;;;5116017;27;20191;-74
2023/06/21 05:23:27;;;;;;;13.73;10.13;;;19.40;99.90;;;;;;5151582;27;20462;-73
2023/06/21 05:25:52;;;;;;;17.03;10.20;;;19.70;99.90;;;;;;5151358;27;20418;-74
2023/06/21 05:28:18;;;;;;;17.40;10.87;;;19.90;99.90;;;;;;5133115;27;20709;-74
2023/06/21 05:30:44;;;;;;;17.60;11.47;;;20.10;99.90;;;;;;5133077;27;20183;-74
2023/06/21 05:33:09;;;;;;;15.30;11.03;;;20.30;99.90;;;;;;5132944;27;20204;-74
2023/06/21 05:35:35;;;;;;;16.43;10.10;;;20.40;99.90;;;;;;5132993;27;20182;-74
2023/06/21 05:38:00;;;;;;;21.63;10.20;;;20.50;99.90;;;;;;5132750;27;21005;-74
2023/06/21 05:40:26;;;;;;;20.00;11.10;;;20.60;99.90;;;;;;5132498;27;20210;-73
2023/06/21 05:42:51;;;;;;;22.27;11.87;;;20.70;99.90;;;;;;5115273;27;20236;-74
2023/06/21 05:45:17;;;;;;;17.00;11.77;;;20.80;99.90;;;;;;5115245;27;20188;-75
2023/06/21 05:47:43;;;;;;;14.40;10.57;;;20.90;99.90;;;;;;5115199;27;20271;-74
2023/06/21 05:50:09;;;;;;;18.97;11.37;;;21.00;99.90;;;;;;5132417;27;20202;-74
2023/06/21 05:52:35;;;;;;;18.63;10.83;;;21.00;99.90;;;;;;5132276;27;20216;-73
2023/06/21 05:55:01;;;;;;;16.10;10.70;;;21.10;99.90;;;;;;5132109;27;20456;-72
2023/06/21 05:57:26;;;;;;;13.33;10.13;;;21.20;99.90;;;;;;5132118;27;20497;-73
2023/06/21 05:59:53;;;;;;;18.57;10.93;;;21.30;99.90;;;;;;5131880;27;20231;-73
2023/06/21 06:02:19;;;;;;;17.73;10.53;;;21.40;99.90;;;;;;5132374;27;21140;-68
2023/06/21 06:04:44;;;;;;;19.10;11.00;;;21.50;99.90;;;;;;5150663;27;20501;-67
2023/06/21 06:07:12;;;;;;;18.53;10.97;;;21.50;99.90;;;;;;5150503;27;20519;-67
2023/06/21 06:09:39;;;;;;;16.63;10.53;;;21.50;99.90;;;;;;5150411;27;20212;-68
2023/06/21 06:12:05;;;;;;;18.33;11.63;;;21.60;99.90;;;;;;5150311;27;20453;-67
2023/06/21 06:14:31;;;;;;;19.03;10.03;;;21.60;99.90;;;;;;5149975;27;20453;-67
2023/06/21 06:16:56;;;;;;;18.30;10.20;;;21.70;99.90;;;;;;5149815;27;20421;-67
2023/06/21 06:19:22;;;;;;;18.03;9.93;;;21.80;99.90;;;;;;5149813;27;20921;-67
2023/06/21 06:21:48;;;;;;;18.53;9.60;;;21.90;99.90;;;;;;5131004;27;20279;-67
2023/06/21 06:24:14;;;;;;;16.07;10.20;;;21.90;99.90;;;;;;5150132;27;20192;-67
2023/06/21 06:26:39;;;;;;;16.73;10.83;;;22.00;99.90;;;;;;5149522;27;20194;-68
2023/06/21 06:29:05;;;;;;;17.27;10.23;;;22.00;99.90;;;;;;5149384;27;20687;-68
2023/06/21 06:31:30;;;;;;;20.10;11.57;;;22.00;99.90;;;;;;5149102;27;20293;-68
2023/06/21 06:33:56;;;;;;;21.00;11.77;;;22.20;99.90;;;;;;5149216;27;20178;-68
2023/06/21 06:36:22;;;;;;;23.43;11.50;;;22.30;99.90;;;;;;5149263;27;20177;-68
2023/06/21 06:38:52;;;;;;;18.33;11.10;;;22.60;99.90;;;;;;5130513;27;20209;-68
2023/06/21 06:41:18;;;;;;;16.30;10.43;;;22.80;99.90;;;;;;5149165;27;20184;-68
2023/06/21 06:43:44;;;;;;;27.57;11.67;;;22.90;99.90;;;;;;5149660;27;21099;-68
2023/06/21 06:46:10;;;;;;;15.53;10.80;;;23.00;99.90;;;;;;5148909;27;20414;-67
2023/06/21 06:48:36;;;;;;;12.13;10.17;;;23.20;99.90;;;;;;5148928;27;20439;-67
2023/06/21 06:51:01;;;;;;;22.20;10.17;;;23.30;99.90;;;;;;5148727;27;20411;-67
2023/06/21 06:53:27;;;;;;;14.83;11.23;;;23.50;99.90;;;;;;5148920;27;20181;-67
2023/06/21 06:55:55;;;;;;;19.27;12.10;;;23.50;99.90;;;;;;5130239;27;20261;-67
2023/06/21 06:58:21;;;;;;;17.87;11.97;;;23.60;99.90;;;;;;5148851;27;20179;-67
2023/06/21 07:00:47;;;;;;;17.50;10.73;;;23.60;99.90;;;;;;5148796;27;20417;-67
2023/06/21 07:03:12;;;;;;;20.93;11.43;;;23.70;99.90;;;;;;5148855;27;20823;-68
2023/06/21 07:05:46;;;;;;;16.00;10.37;;;23.80;99.90;;;;;;5130115;27;20481;-68
2023/06/21 07:08:12;;;;;;;20.23;11.30;;;24.00;99.90;;;;;;5148496;27;20183;-68
2023/06/21 07:10:38;;;;;;;18.30;11.37;;;24.20;99.90;;;;;;5129975;27;20428;-68
2023/06/21 07:13:04;;;;;;;20.33;10.73;;;24.30;99.90;;;;;;5148366;27;20980;-68
2023/06/21 07:15:29;;;;;;;16.53;10.83;;;24.30;99.90;;;;;;5148434;27;20419;-67
2023/06/21 07:17:55;;;;;;;16.10;10.13;;;24.30;99.90;;;;;;5148410;27;20187;-67
2023/06/21 07:20:21;;;;;;;12.70;9.90;;;24.40;99.90;;;;;;5148496;27;20199;-67
2023/06/21 07:22:47;;;;;;;14.90;9.83;;;24.40;99.90;;;;;;5129884;27;20237;-67
2023/06/21 07:25:14;;;;;;;15.90;9.60;;;24.50;99.90;;;;;;5148461;27;20464;-68
2023/06/21 07:27:40;;;;;;;15.30;9.27;;;24.60;99.90;;;;;;5148352;27;20541;-68
2023/06/21 07:30:06;;;;;;;13.70;8.77;;;24.80;99.90;;;;;;5148244;27;20473;-68
2023/06/21 07:32:33;;;;;;;11.90;9.10;;;24.90;99.90;;;;;;5148454;27;20211;-68
2023/06/21 07:34:59;;;;;;;12.60;8.50;;;24.70;99.90;;;;;;5148393;27;20424;-71
2023/06/21 07:37:27;;;;;;;14.20;9.07;;;24.90;99.90;;;;;;5129656;27;20412;-71
2023/06/21 07:39:54;;;;;;;14.67;9.63;;;25.00;99.90;;;;;;5130801;27;20437;-71
2023/06/21 07:42:20;;;;;;;13.70;9.90;;;25.10;99.90;;;;;;5152508;27;20885;-71
2023/06/21 07:44:45;;;;;;;15.60;9.60;;;25.30;99.90;;;;;;5152835;27;20421;-72
2023/06/21 07:47:11;;;;;;;14.33;10.27;;;25.30;99.90;;;;;;5152788;27;20180;-71
2023/06/21 07:49:37;;;;;;;16.27;10.83;;;25.30;99.90;;;;;;5133459;27;20790;-71
2023/06/21 07:52:02;;;;;;;17.07;10.57;;;25.40;99.90;;;;;;5133168;27;20284;-70
2023/06/21 07:54:28;;;;;;;16.10;9.70;;;25.40;99.90;;;;;;5133606;27;20264;-72
2023/06/21 07:56:54;;;;;;;13.10;9.57;;;25.40;99.90;;;;;;5152516;27;20194;-72
2023/06/21 07:59:19;;;;;;;12.70;9.83;;;25.50;99.90;;;;;;5133245;27;20261;-71
2023/06/21 08:01:45;;;;;;;15.43;10.00;;;25.50;99.90;;;;;;5151896;27;20210;-70
2023/06/21 08:04:11;;;;;;;21.23;9.03;;;25.40;99.90;;;;;;5133214;27;20609;-72
2023/06/21 08:06:36;;;;;;;17.97;10.07;;;25.50;99.90;;;;;;5151671;27;20188;-72
2023/06/21 08:09:03;;;;;;;16.87;9.50;;;25.60;99.90;;;;;;5151729;27;20453;-71
2023/06/21 08:11:28;;;;;;;15.73;10.00;;;25.70;99.90;;;;;;5133079;27;20203;-71
2023/06/21 08:13:55;;;;;;;16.40;10.23;;;25.90;99.90;;;;;;5151518;27;20926;-71
2023/06/21 08:16:21;;;;;;;19.90;10.77;;;25.90;99.90;;;;;;5133234;27;20263;-71
2023/06/21 08:18:46;;;;;;;31.00;12.07;;;25.80;99.90;;;;;;5151915;27;20532;-69
2023/06/21 08:21:12;;;;;;;14.50;10.90;;;25.70;99.90;;;;;;5151663;27;20186;-70
2023/06/21 08:23:38;;;;;;;16.10;12.10;;;25.40;99.90;;;;;;5133107;27;20180;-72
2023/06/21 08:26:03;;;;;;;13.43;10.43;;;25.10;99.90;;;;;;5151721;27;20181;-72
2023/06/21 08:28:29;;;;;;;19.07;11.70;;;25.00;99.90;;;;;;5151974;27;20914;-72
2023/06/21 08:30:54;;;;;;;21.00;11.30;;;24.70;99.90;;;;;;5152136;27;20722;-71
2023/06/21 08:33:20;;;;;;;24.17;11.20;;;24.50;99.90;;;;;;5151983;27;20306;-71
2023/06/21 08:35:46;;;;;;;20.23;12.63;;;24.40;99.90;;;;;;5152078;27;20187;-71
2023/06/21 08:38:11;;;;;;;21.50;12.60;;;24.20;99.90;;;;;;5152065;27;20283;-72
2023/06/21 08:40:37;;;;;;;19.53;12.40;;;24.00;99.90;;;;;;5133414;27;20566;-72
2023/06/21 08:43:03;;;;;;;15.00;11.73;;;23.90;99.90;;;;;;5116220;27;20185;-72
2023/06/21 08:45:29;;;;;;;20.43;11.90;;;23.80;99.90;;;;;;5152005;27;20870;-71
2023/06/21 08:48:02;;;;;;;19.13;12.70;;;23.70;99.90;;;;;;5151948;27;20180;-71
2023/06/21 08:50:29;;;;;;;30.03;13.83;;;23.60;99.90;;;;;;5151699;27;20794;-72
2023/06/21 08:52:58;;;;;;;23.83;9.20;;;23.30;99.90;;;;;;5132462;27;20472;-72
2023/06/21 08:55:25;;;;;;;30.83;8.63;;;22.70;99.90;;;;;;5152078;27;20422;-70
2023/06/21 08:58:03;;;;;;;12.57;7.77;;;21.30;99.90;;;;;;5151995;27;20413;-73
2023/06/21 09:00:36;;;;;;;15.43;7.90;;;20.40;99.90;;;;;;5151759;27;20431;-71
2023/06/21 09:03:26;;;;;;;26.33;9.60;;;20.00;99.90;;;;;;5133969;27;20907;-72
2023/06/21 09:06:07;;;;;;;17.40;9.30;;;19.70;99.90;;;;;;5151631;27;20437;-71
2023/06/21 09:08:34;;;;;;;16.70;7.50;;;19.60;99.90;;;;;;5151321;27;20456;-70
2023/06/21 09:11:00;;;;;;;19.50;8.70;;;19.40;99.90;;;;;;5132420;27;20429;-72
2023/06/21 09:13:27;;;;;;;17.67;8.70;;;19.30;99.90;;;;;;5132576;27;20445;-73
2023/06/21 09:15:55;;;;;;;14.10;7.97;;;19.10;99.90;;;;;;5151031;27;20636;-72
2023/06/21 09:18:22;;;;;;;13.93;7.30;;;18.90;99.90;;;;;;5132210;27;20433;-72
2023/06/21 09:20:49;;;;;;;15.23;8.63;;;18.80;99.90;;;;;;5151005;27;20429;-72
2023/06/21 09:23:15;;;;;;;14.33;7.57;;;18.90;99.90;;;;;;5131996;27;20846;-72
2023/06/21 09:25:43;;;;;;;17.70;8.10;;;19.00;99.90;;;;;;5150824;27;20441;-72
2023/06/21 09:28:08;;;;;;;18.27;7.37;;;19.00;99.90;;;;;;5150660;27;20440;-72
2023/06/21 09:30:34;;;;;;;16.13;7.60;;;18.80;99.90;;;;;;5150529;27;20980;-73
2023/06/21 09:32:59;;;;;;;16.43;8.30;;;18.70;99.90;;;;;;5150471;27;20212;-72
2023/06/21 09:35:25;;;;;;;18.07;8.17;;;18.80;99.90;;;;;;5150066;27;20598;-72
2023/06/21 09:37:51;;;;;;;19.80;8.33;;;19.00;99.90;;;;;;5149786;27;20221;-72
2023/06/21 09:40:16;;;;;;;18.10;7.37;;;19.00;99.90;;;;;;5149769;27;20709;-72
2023/06/21 09:42:45;;;;;;;11.70;6.33;;;19.10;99.90;;;;;;5131659;27;20316;-72
2023/06/21 09:45:18;;;;;;;16.20;6.40;;;19.00;99.90;;;;;;5131543;27;20184;-72
2023/06/21 09:47:44;;;;;;;13.40;6.90;;;18.90;99.90;;;;;;5150265;27;20791;-72
2023/06/21 09:50:10;;;;;;;16.33;7.43;;;18.80;99.90;;;;;;5131315;27;20448;-72
2023/06/21 09:52:36;;;;;;;18.37;6.67;;;18.60;99.90;;;;;;5149659;27;20214;-72
2023/06/21 09:55:03;;;;;;;13.40;6.77;;;18.60;99.90;;;;;;5131267;27;20913;-72
2023/06/21 09:57:30;;;;;;;17.47;7.67;;;18.60;99.90;;;;;;5150103;27;20176;-72
2023/06/21 09:59:56;;;;;;;19.87;7.60;;;18.50;99.90;;;;;;5134160;27;20434;-72
2023/06/21 10:02:22;;;;;;;21.00;7.40;;;18.60;99.90;;;;;;5151282;27;20418;-71
2023/06/21 10:04:50;;;;;;;18.57;8.20;;;18.60;99.90;;;;;;5150629;27;20929;-71
2023/06/21 10:07:19;;;;;;;10.07;6.13;;;18.50;99.90;;;;;;5150425;27;20282;-71
2023/06/21 10:09:47;;;;;;;14.90;6.77;;;18.60;99.90;;;;;;5149592;27;20442;-71
2023/06/21 10:12:14;;;;;;;10.00;6.00;;;18.50;99.90;;;;;;5149562;27;21347;-71
2023/06/21 10:14:40;;;;;;;9.57;6.40;;;18.30;99.90;;;;;;5131041;27;20446;-71
2023/06/21 10:17:07;;;;;;;11.53;4.87;;;18.20;99.90;;;;;;5150602;27;20462;-73
2023/06/21 10:19:34;;;;;;;10.40;5.83;;;18.20;99.90;;;;;;5130797;27;20961;-71
2023/06/21 10:22:14;;;;;;;9.50;5.87;;;18.30;99.90;;;;;;5130130;27;20443;-71
2023/06/21 10:24:42;;;;;;;9.10;6.30;;;18.30;99.90;;;;;;5149089;27;20413;-71
2023/06/21 10:27:10;;;;;;;11.17;6.80;;;18.50;99.90;;;;;;5149092;27;20496;-72
2023/06/21 10:29:38;;;;;;;15.03;6.43;;;18.40;99.90;;;;;;5129927;27;20493;-72
2023/06/21 10:32:07;;;;;;;15.30;5.60;;;18.50;99.90;;;;;;5148967;27;20456;-72
2023/06/21 10:35:04;;;;;;;12.47;6.53;;;18.50;99.90;;;;;;5130379;27;20419;-72
2023/06/21 10:38:06;;;;;;;11.40;4.80;;;18.60;99.90;;;;;;5122574;27;20446;-71
2023/06/21 10:40:35;;;;;;;11.80;5.47;;;18.80;99.90;;;;;;5149431;27;20437;-72
2023/06/21 10:43:01;;;;;;;14.07;5.00;;;18.90;99.90;;;;;;5130745;27;20429;-72
2023/06/21 10:45:28;;;;;;;26.83;6.00;;;18.90;99.90;;;;;;5130312;27;20422;-71
2023/06/21 10:47:55;;;;;;;16.30;5.70;;;19.00;99.90;;;;;;5148707;27;20860;-71
2023/06/21 10:50:21;;;;;;;14.57;5.50;;;19.10;99.90;;;;;;5130266;27;20452;-72
2023/06/21 10:52:51;;;;;;;10.10;4.73;;;19.20;99.90;;;;;;5130417;27;20466;-71
2023/06/21 10:55:17;;;;;;;18.00;5.07;;;19.30;99.90;;;;;;5148771;27;20463;-71
2023/06/21 10:57:43;;;;;;;18.33;5.77;;;19.30;99.90;;;;;;5130382;27;20445;-71
2023/06/21 11:00:09;;;;;;;21.60;6.50;;;19.50;99.90;;;;;;5148700;27;20807;-71
2023/06/21 11:02:35;;;;;;;16.30;6.03;;;19.60;99.90;;;;;;5130330;27;20505;-71
2023/06/21 11:05:20;;;;;;;18.07;6.50;;;19.80;99.90;;;;;;5148642;27;20409;-71
2023/06/21 11:08:00;;;;;;;13.27;5.13;;;20.10;99.90;;;;;;5130134;27;20417;-71
2023/06/21 11:10:30;;;;;;;19.37;6.23;;;19.90;99.90;;;;;;5148943;27;20558;-72
2023/06/21 11:12:56;;;;;;;12.47;5.60;;;20.20;99.90;;;;;;5130223;27;20462;-71
2023/06/21 11:15:25;;;;;;;13.57;5.70;;;20.40;99.90;;;;;;5151238;27;20513;-71
2023/06/21 11:17:59;;;;;;;12.17;5.17;;;20.80;99.90;;;;;;5117593;27;20431;-72
2023/06/21 11:20:25;;;;;;;11.50;4.70;;;21.10;99.90;;;;;;5134489;27;20445;-72
2023/06/21 11:23:07;;;;;;;14.50;5.37;;;21.20;99.90;;;;;;5153492;27;20512;-72
2023/06/21 11:25:36;;;;;;;9.77;4.27;;;21.50;99.90;;;;;;5153431;27;20425;-72
2023/06/21 11:28:19;;;;;;;12.40;5.43;;;21.80;99.90;;;;;;5153396;27;20449;-72
2023/06/21 11:31:00;;;;;;;15.17;6.13;;;22.10;99.90;;;;;;5153666;27;20431;-71
2023/06/21 11:33:56;;;;;;;19.77;5.77;;;22.20;99.90;;;;;;5134476;27;20553;-71
2023/06/21 11:36:29;;;;;;;12.20;4.57;;;22.20;99.90;;;;;;5144198;27;20430;-71
2023/06/21 11:39:05;;;;;;;20.17;6.00;;;22.50;99.90;;;;;;5134701;27;20434;-73
2023/06/21 11:41:43;;;;;;;11.80;5.17;;;22.50;99.90;;;;;;5135507;27;20419;-73
2023/06/21 11:44:10;;;;;;;15.90;4.90;;;22.70;99.90;;;;;;5152716;27;20533;-72
2023/06/21 11:46:36;;;;;;;11.33;4.83;;;22.70;99.90;;;;;;5153045;27;20522;-72
2023/06/21 11:49:02;;;;;;;9.83;5.60;;;23.10;99.90;;;;;;5153112;27;20905;-72
2023/06/21 11:51:29;;;;;;;10.60;4.87;;;23.20;99.90;;;;;;5134183;27;20243;-72
2023/06/21 11:53:55;;;;;;;11.70;4.77;;;23.40;99.90;;;;;;5152769;27;20916;-71
2023/06/21 11:56:21;;;;;;;10.00;4.90;;;23.80;99.90;;;;;;5152511;27;20419;-72
2023/06/21 11:58:48;;;;;;;8.50;4.50;;;24.10;99.90;;;;;;5133765;27;20503;-71
2023/06/21 12:01:14;;;;;;;8.43;4.27;;;24.30;99.90;;;;;;5152268;27;20179;-73
2023/06/21 12:03:40;;;;;;;8.63;3.90;;;24.50;99.90;;;;;;5152461;27;20515;-71
2023/06/21 12:06:06;;;;;;;12.03;4.33;;;24.60;99.90;;;;;;5152139;27;20920;-71
2023/06/21 12:08:35;;;;;;;9.23;4.33;;;24.90;99.90;;;;;;5152221;27;20193;-71
2023/06/21 12:11:05;;;;;;;10.90;4.30;;;25.20;99.90;;;;;;5151994;27;20698;-71
2023/06/21 12:13:32;;;;;;;11.93;5.17;;;25.40;99.90;;;;;;5151924;27;20562;-71
2023/06/21 12:15:59;;;;;;;8.10;4.17;;;25.70;99.90;;;;;;5151961;27;20527;-71
2023/06/21 12:18:27;;;;;;;6.23;4.00;;;26.00;99.90;;;;;;5152142;27;20714;-71
2023/06/21 12:21:01;;;;;;;9.97;5.10;;;26.10;99.90;;;;;;5132831;27;20981;-72
2023/06/21 12:23:30;;;;;;;7.37;3.80;;;26.30;99.90;;;;;;5152484;27;20406;-72
2023/06/21 12:26:01;;;;;;;5.90;4.33;;;26.40;99.90;;;;;;5151627;27;20429;-70
2023/06/21 12:28:27;;;;;;;7.00;4.03;;;26.60;99.90;;;;;;5152293;27;20508;-71
2023/06/21 12:31:01;;;;;;;7.50;4.47;;;26.60;99.90;;;;;;5152293;27;20434;-72
2023/06/21 12:33:37;;;;;;;8.87;4.30;;;26.70;99.90;;;;;;5151735;27;20544;-72
2023/06/21 12:36:29;;;;;;;6.80;4.17;;;26.80;99.90;;;;;;5151678;27;20468;-73